createdAt,value
2022-09-05T00:02:06.214Z,100.00
2022-09-05T00:05:10.188Z,100.00
2022-09-05T00:08:21.142Z,100.00
2022-09-05T00:11:41.853Z,100.00
2022-09-05T00:15:16.855Z,100.00
2022-09-05T00:21:17.727Z,100.00
2022-09-05T00:24:19.519Z,100.00
2022-09-05T00:25:08.575Z,100.00
2022-09-05T00:28:26.920Z,100.00
2022-09-05T00:31:54.561Z,100.00
2022-09-05T00:35:05.894Z,100.00
2022-09-05T00:37:53.174Z,100.00
2022-09-05T00:40:49.550Z,100.00
2022-09-05T00:43:54.625Z,100.00
2022-09-05T00:47:00.143Z,100.00
2022-09-05T00:50:06.558Z,100.00
2022-09-05T00:53:07.520Z,100.00
2022-09-05T00:56:13.393Z,100.00
2022-09-05T00:59:24.529Z,100.00
2022-09-05T01:03:09.277Z,100.00
2022-09-05T01:06:13.741Z,100.00
2022-09-05T01:09:12.862Z,100.00
2022-09-05T01:12:06.033Z,100.00
2022-09-05T01:15:19.404Z,100.00
2022-09-05T01:18:39.817Z,100.00
2022-09-05T01:21:48.646Z,100.00
2022-09-05T01:25:03.538Z,100.00
2022-09-05T01:29:13.850Z,100.00
2022-09-05T01:31:44.459Z,100.00
2022-09-05T01:35:01.213Z,100.00
2022-09-05T01:37:53.419Z,100.00
2022-09-05T01:41:21.123Z,100.00
2022-09-05T01:44:29.420Z,100.00
2022-09-05T01:47:39.551Z,100.00
2022-09-05T01:50:31.812Z,100.00
2022-09-05T01:53:41.453Z,100.00
2022-09-05T01:56:33.667Z,100.00
2022-09-05T01:59:38.531Z,100.00
2022-09-05T02:02:48.932Z,100.00
2022-09-05T02:06:14.152Z,100.00
2022-09-05T02:09:09.544Z,100.00
2022-09-05T02:12:17.010Z,100.00
2022-09-05T02:15:37.298Z,100.00
2022-09-05T02:18:35.849Z,100.00
2022-09-05T02:21:27.605Z,100.00
2022-09-05T02:24:24.481Z,100.00
2022-09-05T02:27:40.234Z,100.00
2022-09-05T02:30:30.499Z,100.00
2022-09-05T02:33:31.514Z,100.00
2022-09-05T02:36:22.716Z,100.00
2022-09-05T02:45:02.659Z,100.00
2022-09-05T02:45:13.551Z,100.00
2022-09-05T02:46:11.406Z,100.00
2022-09-05T02:49:26.180Z,100.00
2022-09-05T02:57:26.025Z,100.00
2022-09-05T02:58:05.566Z,100.00
2022-09-05T02:59:36.100Z,100.00
2022-09-05T03:02:39.924Z,100.00
2022-09-05T03:05:40.253Z,100.00
2022-09-05T03:08:55.918Z,100.00
2022-09-05T03:12:29.142Z,100.00
2022-09-05T03:15:44.824Z,100.00
2022-09-05T03:19:11.918Z,100.00
2022-09-05T03:22:09.712Z,100.00
2022-09-05T03:25:39.538Z,100.00
2022-09-05T03:28:50.785Z,100.00
2022-09-05T03:32:08.964Z,100.00
2022-09-05T03:35:18.712Z,100.00
2022-09-05T03:38:21.259Z,100.00
2022-09-05T03:41:40.077Z,100.00
2022-09-05T03:44:26.197Z,100.00
2022-09-05T03:47:30.213Z,100.00
2022-09-05T03:57:06.019Z,100.00
2022-09-05T03:57:14.939Z,100.00
2022-09-05T03:58:02.108Z,100.00
2022-09-05T04:02:38.789Z,100.00
2022-09-05T04:08:26.021Z,100.00
2022-09-05T04:08:33.057Z,100.00
2022-09-05T04:11:24.518Z,100.00
2022-09-05T04:14:26.104Z,100.00
2022-09-05T04:17:35.680Z,100.00
2022-09-05T04:20:46.348Z,100.00
2022-09-05T04:23:46.252Z,100.00
2022-09-05T04:26:43.072Z,100.00
2022-09-05T04:29:54.481Z,100.00
2022-09-05T04:32:59.091Z,100.00
2022-09-05T04:36:02.018Z,100.00
2022-09-05T04:39:17.484Z,100.00
2022-09-05T04:42:23.763Z,100.00
2022-09-05T04:45:22.061Z,100.00
2022-09-05T04:48:10.850Z,100.00
2022-09-05T04:51:11.564Z,100.00
2022-09-05T04:53:58.130Z,100.00
2022-09-05T04:56:49.326Z,100.00
2022-09-05T05:05:17.931Z,100.00
2022-09-05T05:06:05.029Z,100.00
2022-09-05T05:06:47.333Z,100.00
2022-09-05T05:09:39.302Z,100.00
2022-09-05T05:17:56.295Z,100.00
2022-09-05T05:18:06.170Z,100.00
2022-09-05T05:19:33.266Z,100.00
2022-09-05T05:22:18.401Z,100.00
2022-09-05T05:25:09.986Z,100.00
2022-09-05T05:28:22.758Z,100.00
2022-09-05T05:31:17.728Z,100.00
2022-09-05T05:34:24.224Z,100.00
2022-09-05T05:37:22.589Z,100.00
2022-09-05T05:40:25.090Z,100.00
2022-09-05T05:43:40.040Z,100.00
2022-09-05T05:46:34.343Z,100.00
2022-09-05T05:49:31.980Z,100.00
2022-09-05T05:53:33.532Z,100.00
2022-09-05T05:56:54.254Z,100.00
2022-09-05T05:59:56.679Z,100.00
2022-09-05T06:03:26.655Z,100.00
2022-09-05T06:06:39.579Z,100.00
2022-09-05T06:14:48.279Z,100.00
2022-09-05T06:14:57.618Z,100.00
2022-09-05T06:16:43.948Z,100.00
2022-09-05T06:22:04.257Z,100.00
2022-09-05T06:23:39.639Z,100.00
2022-09-05T06:26:28.218Z,100.00
2022-09-05T06:29:47.083Z,100.00
2022-09-05T06:32:58.422Z,100.00
2022-09-05T06:36:06.791Z,100.00
2022-09-05T06:39:04.086Z,100.00
2022-09-05T06:42:04.933Z,100.00
2022-09-05T06:45:26.972Z,100.00
2022-09-05T06:48:44.406Z,100.00
2022-09-05T06:52:04.174Z,100.00
2022-09-05T06:55:13.480Z,100.00
2022-09-05T06:58:39.205Z,100.00
2022-09-05T07:01:59.699Z,100.00
2022-09-05T07:05:37.855Z,100.00
2022-09-05T07:08:18.440Z,100.00
2022-09-05T07:11:19.682Z,100.00
2022-09-05T07:14:30.409Z,100.00
2022-09-05T07:17:24.780Z,100.00
2022-09-05T07:20:26.079Z,100.00
2022-09-05T07:24:06.385Z,100.00
2022-09-05T07:26:54.134Z,100.00
2022-09-05T07:29:49.724Z,100.00
2022-09-05T07:32:54.199Z,100.00
2022-09-05T07:35:41.667Z,100.00
2022-09-05T07:38:50.293Z,100.00
2022-09-05T07:41:39.093Z,100.00
2022-09-05T07:44:34.039Z,100.00
2022-09-05T07:47:26.144Z,100.00
2022-09-05T07:52:21.095Z,100.00
2022-09-05T07:56:54.387Z,100.00
2022-09-05T07:57:22.229Z,100.00
2022-09-05T08:00:26.010Z,100.00
2022-09-05T08:03:14.953Z,100.00
2022-09-05T08:06:13.069Z,100.00
2022-09-05T08:10:10.168Z,100.00
2022-09-05T08:13:23.058Z,100.00
2022-09-05T08:16:13.190Z,100.00
2022-09-05T08:19:29.195Z,100.00
2022-09-05T08:22:28.449Z,100.00
2022-09-05T08:25:18.048Z,100.00
2022-09-05T08:28:18.920Z,100.00
2022-09-05T08:31:11.281Z,100.00
2022-09-05T08:34:02.677Z,100.00
2022-09-05T08:36:56.396Z,100.00
2022-09-05T08:39:43.811Z,100.00
2022-09-05T08:42:52.755Z,100.00
2022-09-05T08:46:43.900Z,100.00
2022-09-05T08:49:37.906Z,100.00
2022-09-05T08:52:48.430Z,100.00
2022-09-05T08:55:53.072Z,100.00
2022-09-05T08:59:31.591Z,100.00
2022-09-05T09:02:47.702Z,100.00
2022-09-05T09:06:17.330Z,100.00
2022-09-05T09:09:41.834Z,100.00
2022-09-05T09:12:42.382Z,100.00
2022-09-05T09:15:48.654Z,100.00
2022-09-05T09:18:49.187Z,100.00
2022-09-05T09:21:46.819Z,96.79
2022-09-05T09:24:40.830Z,98.28
2022-09-05T09:28:46.825Z,95.87
2022-09-05T09:31:40.925Z,95.93
2022-09-05T09:34:26.588Z,96.86
2022-09-05T09:37:58.711Z,96.66
2022-09-05T09:41:00.939Z,98.06
2022-09-05T09:43:57.599Z,96.19
2022-09-05T09:46:45.010Z,96.14
2022-09-05T09:49:54.967Z,94.16
2022-09-05T09:53:02.002Z,89.53
2022-09-05T09:56:12.423Z,93.09
2022-09-05T09:59:17.692Z,89.63
2022-09-05T10:04:23.802Z,93.53
2022-09-05T10:10:34.596Z,93.62
2022-09-05T10:10:58.711Z,91.53
2022-09-05T10:12:22.327Z,93.20
2022-09-05T10:15:31.182Z,90.03
2022-09-05T10:18:27.073Z,89.77
2022-09-05T10:21:35.821Z,87.45
2022-09-05T10:24:34.405Z,83.45
2022-09-05T10:27:27.973Z,85.38
2022-09-05T10:31:51.393Z,85.92
2022-09-05T10:35:14.037Z,83.16
2022-09-05T10:36:54.547Z,77.68
2022-09-05T10:39:51.369Z,77.84
2022-09-05T10:42:55.525Z,79.87
2022-09-05T10:45:57.464Z,81.76
2022-09-05T10:48:53.832Z,84.07
2022-09-05T10:51:52.027Z,85.76
2022-09-05T10:54:49.537Z,86.46
2022-09-05T10:57:50.021Z,85.86
2022-09-05T11:02:25.903Z,84.61
2022-09-05T11:04:46.534Z,86.61
2022-09-05T11:08:10.809Z,86.50
2022-09-05T11:11:17.321Z,87.51
2022-09-05T11:14:48.996Z,86.43
2022-09-05T11:17:33.920Z,85.19
2022-09-05T11:20:50.132Z,86.78
2022-09-05T11:23:57.371Z,83.77
2022-09-05T11:27:23.574Z,82.94
2022-09-05T11:30:28.464Z,84.68
2022-09-05T11:39:47.121Z,77.95
2022-09-05T11:39:52.514Z,79.17
2022-09-05T11:40:29.298Z,77.49
2022-09-05T11:43:37.064Z,77.23
2022-09-05T11:46:29.471Z,73.20
2022-09-05T11:49:48.769Z,62.82
2022-09-05T11:53:32.495Z,63.70
2022-09-05T11:56:44.105Z,67.53
2022-09-05T12:00:10.690Z,64.74
2022-09-05T12:04:03.696Z,64.26
2022-09-05T12:06:31.787Z,64.98
2022-09-05T12:09:36.274Z,66.44
2022-09-05T12:12:41.094Z,67.94
2022-09-05T12:15:33.727Z,67.18
2022-09-05T12:18:43.030Z,68.16
2022-09-05T12:21:28.144Z,69.83
2022-09-05T12:25:24.908Z,68.75
2022-09-05T12:27:46.160Z,68.74
2022-09-05T12:30:41.158Z,70.14
2022-09-05T12:36:04.325Z,70.54
2022-09-05T12:40:38.378Z,65.63
2022-09-05T12:41:42.574Z,61.01
2022-09-05T12:43:44.991Z,53.63
2022-09-05T12:46:32.671Z,52.35
2022-09-05T12:49:36.157Z,47.53
2022-09-05T12:52:33.177Z,46.92
2022-09-05T12:55:25.589Z,43.67
2022-09-05T13:01:31.932Z,41.92
2022-09-05T13:03:07.540Z,40.13
2022-09-05T13:05:01.395Z,39.28
2022-09-05T13:07:57.649Z,37.08
2022-09-05T13:14:47.604Z,35.99
2022-09-05T13:15:06.064Z,34.91
2022-09-05T13:17:08.608Z,34.45
2022-09-05T13:19:58.370Z,33.11
2022-09-05T13:22:49.447Z,35.16
2022-09-05T13:25:36.606Z,34.42
2022-09-05T13:28:28.309Z,31.33
2022-09-05T13:37:54.980Z,32.19
2022-09-05T13:37:58.028Z,33.10
2022-09-05T13:38:37.785Z,35.23
2022-09-05T13:41:28.818Z,36.71
2022-09-05T13:44:27.370Z,38.33
2022-09-05T13:47:29.310Z,39.89
2022-09-05T13:50:30.654Z,42.62
2022-09-05T13:53:35.845Z,45.01
2022-09-05T13:56:30.681Z,46.85
2022-09-05T13:59:21.057Z,49.12
2022-09-05T14:03:29.899Z,51.79
2022-09-05T14:06:02.683Z,53.43
2022-09-05T14:12:37.547Z,56.56
2022-09-05T14:15:38.291Z,57.94
2022-09-05T14:18:29.623Z,58.45
2022-09-05T14:21:15.170Z,59.52
2022-09-05T14:24:13.337Z,60.76
2022-09-05T14:27:31.815Z,60.42
2022-09-05T14:32:39.864Z,59.73
2022-09-05T14:37:40.123Z,61.44
2022-09-05T14:37:51.716Z,62.50
2022-09-05T14:39:59.058Z,63.57
2022-09-05T14:42:43.680Z,64.27
2022-09-05T14:45:39.937Z,65.52
2022-09-05T14:48:30.224Z,65.61
2022-09-05T14:51:25.589Z,63.55
2022-09-05T14:58:59.684Z,63.59
2022-09-05T15:02:45.489Z,63.72
2022-09-05T15:02:51.985Z,60.18
2022-09-05T15:05:15.464Z,59.02
2022-09-05T15:07:48.355Z,52.94
2022-09-05T15:12:15.442Z,51.42
2022-09-05T15:13:13.564Z,47.91
2022-09-05T15:16:08.666Z,45.78
2022-09-05T15:18:45.277Z,44.99
2022-09-05T15:21:30.620Z,46.53
2022-09-05T15:24:15.203Z,48.87
2022-09-05T15:26:54.125Z,50.88
2022-09-05T15:29:27.822Z,52.15
2022-09-05T15:32:22.463Z,53.23
2022-09-05T15:35:01.330Z,54.21
2022-09-05T15:37:40.583Z,57.17
2022-09-05T15:40:22.101Z,58.36
2022-09-05T15:43:01.481Z,60.08
2022-09-05T15:45:34.934Z,61.31
2022-09-05T15:48:12.508Z,63.80
2022-09-05T15:50:55.157Z,65.67
2022-09-05T15:53:31.092Z,68.31
2022-09-05T15:56:15.599Z,69.61
2022-09-05T15:58:57.973Z,70.75
2022-09-05T16:01:58.502Z,73.61
2022-09-05T16:10:31.286Z,76.25
2022-09-05T16:10:43.466Z,78.00
2022-09-05T16:10:59.096Z,79.59
2022-09-05T16:13:16.702Z,80.46
2022-09-05T16:18:58.598Z,83.01
2022-09-05T16:23:13.033Z,84.85
2022-09-05T16:23:13.357Z,83.43
2022-09-05T16:24:41.566Z,84.66
2022-09-05T16:27:33.360Z,86.13
2022-09-05T16:30:01.583Z,87.00
2022-09-05T16:32:30.478Z,88.96
2022-09-05T16:35:10.308Z,89.15
2022-09-05T16:37:50.391Z,90.37
2022-09-05T16:40:35.175Z,91.37
2022-09-05T16:43:17.696Z,93.53
2022-09-05T16:46:28.184Z,93.25
2022-09-05T16:48:58.160Z,93.59
2022-09-05T16:51:55.019Z,92.94
2022-09-05T16:54:46.697Z,94.70
2022-09-05T16:57:26.271Z,95.85
2022-09-05T17:00:01.091Z,98.13
2022-09-05T17:02:43.389Z,95.69
2022-09-05T17:05:22.309Z,95.51
2022-09-05T17:07:59.646Z,95.30
2022-09-05T17:10:58.128Z,95.46
2022-09-05T17:13:48.983Z,97.55
2022-09-05T17:16:22.188Z,98.76
2022-09-05T17:18:52.080Z,98.67
2022-09-05T17:23:02.821Z,98.61
2022-09-05T17:29:16.732Z,99.84
2022-09-05T17:29:35.288Z,100.00
2022-09-05T17:33:45.066Z,100.00
2022-09-05T17:36:33.610Z,100.00
2022-09-05T17:39:14.201Z,100.00
2022-09-05T17:42:02.606Z,99.98
2022-09-05T17:44:43.173Z,99.10
2022-09-05T17:47:36.513Z,98.51
2022-09-05T17:50:15.302Z,98.87
2022-09-05T17:53:26.131Z,98.47
2022-09-05T17:55:50.403Z,97.85
2022-09-05T17:58:49.655Z,98.10
2022-09-05T18:01:26.667Z,98.67
2022-09-05T18:04:06.813Z,99.00
2022-09-05T18:06:58.936Z,99.97
2022-09-05T18:09:37.147Z,100.00
2022-09-05T18:15:22.228Z,100.00
2022-09-05T18:17:57.871Z,100.00
2022-09-05T18:20:53.542Z,100.00
2022-09-05T18:23:46.725Z,100.00
2022-09-05T18:26:26.268Z,100.00
2022-09-05T18:29:19.890Z,100.00
2022-09-05T18:31:51.702Z,100.00
2022-09-05T18:34:19.625Z,100.00
2022-09-05T18:39:52.440Z,100.00
2022-09-05T18:42:34.221Z,100.00
2022-09-05T18:45:14.819Z,100.00
2022-09-05T18:47:59.333Z,100.00
2022-09-05T18:53:33.507Z,100.00
2022-09-05T18:56:19.942Z,100.00
2022-09-05T18:59:18.999Z,100.00
2022-09-05T19:02:40.375Z,100.00
2022-09-05T19:05:34.732Z,100.00
2022-09-05T19:08:32.054Z,100.00
2022-09-05T19:11:27.937Z,100.00
2022-09-05T19:14:25.481Z,100.00
2022-09-05T19:16:48.414Z,100.00
2022-09-05T19:19:30.575Z,100.00
2022-09-05T19:23:08.668Z,100.00
2022-09-05T19:25:26.337Z,100.00
2022-09-05T19:36:43.993Z,100.00
2022-09-05T19:36:57.862Z,100.00
2022-09-05T19:37:23.714Z,100.00
2022-09-05T19:37:44.731Z,100.00
2022-09-05T19:47:10.952Z,100.00
2022-09-05T19:47:39.303Z,100.00
2022-09-05T19:47:43.283Z,100.00
2022-09-05T19:49:17.249Z,100.00
2022-09-05T19:51:50.576Z,100.00
2022-09-05T19:54:26.055Z,100.00
2022-09-05T19:57:16.566Z,100.00
2022-09-05T19:59:45.620Z,100.00
2022-09-05T20:02:26.152Z,100.00
2022-09-05T20:04:59.314Z,100.00
2022-09-05T20:07:31.654Z,100.00
2022-09-05T20:10:02.292Z,100.00
2022-09-05T20:12:42.854Z,100.00
2022-09-05T20:15:24.834Z,100.00
2022-09-05T20:18:00.702Z,100.00
2022-09-05T20:21:03.974Z,100.00
2022-09-05T20:23:31.956Z,100.00
2022-09-05T20:26:04.027Z,100.00
2022-09-05T20:28:37.243Z,100.00
2022-09-05T20:31:11.897Z,100.00
2022-09-05T20:33:42.195Z,100.00
2022-09-05T20:43:11.113Z,100.00
2022-09-05T20:43:24.178Z,100.00
2022-09-05T20:43:36.695Z,100.00
2022-09-05T20:44:51.583Z,100.00
2022-09-05T20:51:33.272Z,100.00
2022-09-05T20:54:16.034Z,100.00
2022-09-05T20:54:23.016Z,100.00
2022-09-05T20:56:24.101Z,100.00
2022-09-05T20:58:56.913Z,100.00
2022-09-05T21:01:26.804Z,100.00
2022-09-05T21:03:57.190Z,100.00
2022-09-05T21:06:35.549Z,100.00
2022-09-05T21:09:25.399Z,100.00
2022-09-05T21:11:55.772Z,100.00
2022-09-05T21:14:28.212Z,100.00
2022-09-05T21:17:14.832Z,100.00
2022-09-05T21:19:58.347Z,100.00
2022-09-05T21:22:43.940Z,100.00
2022-09-05T21:25:17.255Z,100.00
2022-09-05T21:28:01.804Z,100.00
2022-09-05T21:30:40.971Z,100.00
2022-09-05T21:33:18.561Z,100.00
2022-09-05T21:35:50.989Z,100.00
2022-09-05T21:38:32.666Z,100.00
2022-09-05T21:41:01.692Z,100.00
2022-09-05T21:47:35.624Z,100.00
2022-09-05T21:47:47.784Z,100.00
2022-09-05T21:49:22.244Z,100.00
2022-09-05T21:51:52.670Z,100.00
2022-09-05T21:59:15.201Z,100.00
2022-09-05T21:59:24.927Z,100.00
2022-09-05T22:00:14.577Z,100.00
2022-09-05T22:02:49.238Z,100.00
2022-09-05T22:05:25.000Z,100.00
2022-09-05T22:08:02.505Z,100.00
2022-09-05T22:13:20.987Z,100.00
2022-09-05T22:18:47.005Z,100.00
2022-09-05T22:21:32.939Z,100.00
2022-09-05T22:24:09.525Z,100.00
2022-09-05T22:27:12.313Z,100.00
2022-09-05T22:29:39.273Z,100.00
2022-09-05T22:32:16.374Z,100.00
2022-09-05T22:34:55.090Z,100.00
2022-09-05T22:37:22.374Z,100.00
2022-09-05T22:39:52.578Z,100.00
2022-09-05T22:42:22.693Z,100.00
2022-09-05T22:44:56.392Z,100.00
2022-09-05T22:47:29.253Z,100.00
2022-09-05T22:50:03.486Z,100.00
2022-09-05T22:52:30.566Z,100.00
2022-09-05T22:54:57.715Z,100.00
2022-09-05T22:57:24.869Z,100.00
2022-09-05T22:59:52.206Z,100.00
2022-09-05T23:02:19.275Z,100.00
2022-09-05T23:04:53.645Z,100.00
2022-09-05T23:07:20.980Z,100.00
2022-09-05T23:09:48.218Z,100.00
2022-09-05T23:12:15.348Z,100.00
2022-09-05T23:14:44.848Z,100.00
2022-09-05T23:17:14.244Z,100.00
2022-09-05T23:19:41.880Z,100.00
2022-09-05T23:22:09.054Z,100.00
2022-09-05T23:24:38.501Z,100.00
2022-09-05T23:27:05.699Z,100.00
2022-09-05T23:29:33.012Z,100.00
2022-09-05T23:31:59.999Z,100.00
2022-09-05T23:34:32.635Z,100.00
2022-09-05T23:36:59.914Z,100.00
2022-09-05T23:39:28.158Z,100.00
2022-09-05T23:41:55.252Z,100.00
2022-09-05T23:44:22.408Z,100.00
2022-09-05T23:46:50.124Z,100.00
2022-09-05T23:49:18.035Z,100.00
2022-09-05T23:51:45.830Z,100.00
2022-09-05T23:54:16.116Z,100.00
2022-09-05T23:56:44.214Z,100.00
2022-09-05T23:59:11.566Z,100.00
